sensor_id;sensor_type;location;lat;lon;timestamp;pressure;altitude;pressure_sealevel;temperature;humidity
32197;BME280;18697;42.770;23.400;2022-12-08T00:02:16;95506.28;;;6.98;68.47
32197;BME280;18697;42.770;23.400;2022-12-08T00:04:42;95509.25;;;6.90;68.93
32197;BME280;18697;42.770;23.400;2022-12-08T00:07:26;95513.16;;;6.68;69.49
32197;BME280;18697;42.770;23.400;2022-12-08T00:10:09;95516.34;;;6.66;69.27
32197;BME280;18697;42.770;23.400;2022-12-08T00:12:35;95529.59;;;6.71;69.46
32197;BME280;18697;42.770;23.400;2022-12-08T00:15:00;95526.06;;;6.58;69.88
32197;BME280;18697;42.770;23.400;2022-12-08T00:17:25;95527.06;;;6.64;70.66
32197;BME280;18697;42.770;23.400;2022-12-08T00:19:51;95518.13;;;6.60;71.07
32197;BME280;18697;42.770;23.400;2022-12-08T00:22:16;95528.81;;;6.71;71.40
32197;BME280;18697;42.770;23.400;2022-12-08T00:24:43;95517.75;;;6.71;71.08
32197;BME280;18697;42.770;23.400;2022-12-08T00:27:14;95520.00;;;6.63;71.71
32197;BME280;18697;42.770;23.400;2022-12-08T00:29:42;95526.47;;;6.69;72.02
32197;BME280;18697;42.770;23.400;2022-12-08T00:32:08;95517.25;;;6.63;72.05
32197;BME280;18697;42.770;23.400;2022-12-08T00:34:33;95529.59;;;6.71;72.27
32197;BME280;18697;42.770;23.400;2022-12-08T00:36:59;95525.59;;;6.72;71.97
32197;BME280;18697;42.770;23.400;2022-12-08T00:39:24;95518.69;;;6.68;72.41
32197;BME280;18697;42.770;23.400;2022-12-08T00:41:50;95532.34;;;6.58;71.87
32197;BME280;18697;42.770;23.400;2022-12-08T00:44:37;95538.81;;;6.26;73.01
32197;BME280;18697;42.770;23.400;2022-12-08T00:47:02;95537.81;;;6.20;73.10
32197;BME280;18697;42.770;23.400;2022-12-08T00:49:28;95539.34;;;6.21;73.53
32197;BME280;18697;42.770;23.400;2022-12-08T00:51:53;95551.81;;;6.26;73.48
32197;BME280;18697;42.770;23.400;2022-12-08T00:54:19;95550.03;;;6.19;73.24
32197;BME280;18697;42.770;23.400;2022-12-08T00:56:44;95549.84;;;6.26;72.64
32197;BME280;18697;42.770;23.400;2022-12-08T00:59:11;95553.06;;;6.38;72.59
32197;BME280;18697;42.770;23.400;2022-12-08T01:01:36;95549.88;;;6.39;72.66
32197;BME280;18697;42.770;23.400;2022-12-08T01:04:06;95553.63;;;6.45;72.60
32197;BME280;18697;42.770;23.400;2022-12-08T01:06:33;95546.91;;;6.46;72.25
32197;BME280;18697;42.770;23.400;2022-12-08T01:09:01;95540.06;;;6.51;72.06
32197;BME280;18697;42.770;23.400;2022-12-08T01:11:27;95546.47;;;6.48;72.28
32197;BME280;18697;42.770;23.400;2022-12-08T01:13:52;95539.75;;;6.49;72.13
32197;BME280;18697;42.770;23.400;2022-12-08T01:16:26;95523.41;;;6.42;72.00
32197;BME280;18697;42.770;23.400;2022-12-08T01:18:52;95548.09;;;6.33;72.59
32197;BME280;18697;42.770;23.400;2022-12-08T01:21:18;95548.09;;;6.33;73.04
32197;BME280;18697;42.770;23.400;2022-12-08T01:23:44;95544.78;;;6.38;73.20
32197;BME280;18697;42.770;23.400;2022-12-08T01:26:11;95536.84;;;6.40;73.13
32197;BME280;18697;42.770;23.400;2022-12-08T01:28:38;95530.66;;;6.36;73.20
32197;BME280;18697;42.770;23.400;2022-12-08T01:31:04;95533.25;;;6.14;73.54
32197;BME280;18697;42.770;23.400;2022-12-08T01:33:34;95531.63;;;6.16;74.50
32197;BME280;18697;42.770;23.400;2022-12-08T01:36:01;95534.38;;;6.16;74.16
32197;BME280;18697;42.770;23.400;2022-12-08T01:38:27;95527.16;;;6.06;74.49
32197;BME280;18697;42.770;23.400;2022-12-08T01:40:52;95516.63;;;6.17;74.49
32197;BME280;18697;42.770;23.400;2022-12-08T01:43:19;95512.06;;;6.11;74.19
32197;BME280;18697;42.770;23.400;2022-12-08T01:45:45;95510.91;;;6.24;74.15
32197;BME280;18697;42.770;23.400;2022-12-08T01:48:21;95515.75;;;6.20;74.08
32197;BME280;18697;42.770;23.400;2022-12-08T01:50:48;95512.19;;;6.20;74.12
32197;BME280;18697;42.770;23.400;2022-12-08T01:53:25;95508.91;;;6.25;73.84
32197;BME280;18697;42.770;23.400;2022-12-08T01:56:05;95507.91;;;6.19;72.82
32197;BME280;18697;42.770;23.400;2022-12-08T01:58:42;95509.66;;;6.13;73.20
32197;BME280;18697;42.770;23.400;2022-12-08T02:01:09;95502.84;;;5.88;74.10
32197;BME280;18697;42.770;23.400;2022-12-08T02:06:10;95504.69;;;5.79;75.24
32197;BME280;18697;42.770;23.400;2022-12-08T02:08:38;95501.50;;;5.80;75.60
32197;BME280;18697;42.770;23.400;2022-12-08T02:11:07;95510.00;;;5.86;75.41
32197;BME280;18697;42.770;23.400;2022-12-08T02:13:33;95511.25;;;5.98;74.84
32197;BME280;18697;42.770;23.400;2022-12-08T02:19:05;95504.06;;;5.87;74.45
32197;BME280;18697;42.770;23.400;2022-12-08T02:35:39;95511.50;;;5.90;72.66
32197;BME280;18697;42.770;23.400;2022-12-08T02:38:43;95501.16;;;5.78;72.01
32197;BME280;18697;42.770;23.400;2022-12-08T02:44:25;95503.66;;;5.44;73.83
32197;BME280;18697;42.770;23.400;2022-12-08T02:46:58;95507.25;;;5.57;74.27
32197;BME280;18697;42.770;23.400;2022-12-08T02:49:30;95502.13;;;5.72;74.06
32197;BME280;18697;42.770;23.400;2022-12-08T02:52:34;95496.72;;;5.68;72.86
32197;BME280;18697;42.770;23.400;2022-12-08T02:55:04;95497.00;;;5.57;73.25
32197;BME280;18697;42.770;23.400;2022-12-08T03:03:21;95491.34;;;5.48;74.55
32197;BME280;18697;42.770;23.400;2022-12-08T03:07:01;95498.16;;;5.44;74.40
32197;BME280;18697;42.770;23.400;2022-12-08T03:09:08;95492.72;;;5.40;74.38
32197;BME280;18697;42.770;23.400;2022-12-08T03:12:02;95481.19;;;5.16;75.24
32197;BME280;18697;42.770;23.400;2022-12-08T03:14:30;95484.56;;;5.37;74.06
32197;BME280;18697;42.770;23.400;2022-12-08T03:16:58;95497.91;;;5.38;72.95
32197;BME280;18697;42.770;23.400;2022-12-08T03:19:27;95492.38;;;5.38;72.78
32197;BME280;18697;42.770;23.400;2022-12-08T03:21:56;95504.63;;;5.37;73.84
32197;BME280;18697;42.770;23.400;2022-12-08T03:24:35;95496.06;;;5.19;74.09
32197;BME280;18697;42.770;23.400;2022-12-08T03:27:02;95507.78;;;5.36;73.98
32197;BME280;18697;42.770;23.400;2022-12-08T03:29:29;95502.38;;;5.32;73.82
32197;BME280;18697;42.770;23.400;2022-12-08T03:32:06;95506.19;;;5.22;74.04
32197;BME280;18697;42.770;23.400;2022-12-08T03:34:33;95510.47;;;5.23;74.51
32197;BME280;18697;42.770;23.400;2022-12-08T03:37:00;95505.03;;;5.36;73.82
32197;BME280;18697;42.770;23.400;2022-12-08T03:39:26;95500.94;;;5.27;73.57
32197;BME280;18697;42.770;23.400;2022-12-08T03:41:52;95497.31;;;5.31;73.43
32197;BME280;18697;42.770;23.400;2022-12-08T03:44:17;95496.91;;;5.16;72.12
32197;BME280;18697;42.770;23.400;2022-12-08T03:46:43;95497.63;;;5.04;71.62
32197;BME280;18697;42.770;23.400;2022-12-08T03:49:08;95509.50;;;5.01;72.39
32197;BME280;18697;42.770;23.400;2022-12-08T03:51:33;95515.94;;;4.94;73.03
32197;BME280;18697;42.770;23.400;2022-12-08T03:53:59;95502.16;;;4.78;73.34
32197;BME280;18697;42.770;23.400;2022-12-08T03:56:25;95501.03;;;4.59;75.22
32197;BME280;18697;42.770;23.400;2022-12-08T03:58:52;95520.78;;;4.38;76.86
32197;BME280;18697;42.770;23.400;2022-12-08T04:01:17;95516.91;;;4.35;77.52
32197;BME280;18697;42.770;23.400;2022-12-08T04:03:43;95518.44;;;4.00;78.08
32197;BME280;18697;42.770;23.400;2022-12-08T04:06:09;95520.97;;;3.91;77.08
32197;BME280;18697;42.770;23.400;2022-12-08T04:08:34;95522.31;;;4.03;77.11
32197;BME280;18697;42.770;23.400;2022-12-08T04:11:00;95529.13;;;4.14;77.14
32197;BME280;18697;42.770;23.400;2022-12-08T04:13:25;95518.28;;;4.07;77.18
32197;BME280;18697;42.770;23.400;2022-12-08T04:15:50;95517.63;;;4.19;77.72
32197;BME280;18697;42.770;23.400;2022-12-08T04:18:16;95521.47;;;4.42;77.96
32197;BME280;18697;42.770;23.400;2022-12-08T04:20:43;95525.78;;;4.59;77.31
32197;BME280;18697;42.770;23.400;2022-12-08T04:23:09;95523.72;;;4.63;76.56
32197;BME280;18697;42.770;23.400;2022-12-08T04:25:38;95525.63;;;4.66;76.23
32197;BME280;18697;42.770;23.400;2022-12-08T04:28:04;95534.59;;;4.86;75.92
32197;BME280;18697;42.770;23.400;2022-12-08T04:30:31;95538.03;;;4.90;74.57
32197;BME280;18697;42.770;23.400;2022-12-08T04:32:56;95520.31;;;4.91;73.23
32197;BME280;18697;42.770;23.400;2022-12-08T04:35:22;95513.78;;;4.85;73.07
32197;BME280;18697;42.770;23.400;2022-12-08T04:37:47;95519.78;;;4.80;73.29
32197;BME280;18697;42.770;23.400;2022-12-08T04:40:13;95524.00;;;4.69;74.13
32197;BME280;18697;42.770;23.400;2022-12-08T04:42:38;95518.84;;;4.71;74.26
32197;BME280;18697;42.770;23.400;2022-12-08T04:45:04;95518.94;;;4.83;74.63
32197;BME280;18697;42.770;23.400;2022-12-08T04:47:30;95522.91;;;4.99;74.70
32197;BME280;18697;42.770;23.400;2022-12-08T04:49:55;95521.34;;;4.98;74.33
32197;BME280;18697;42.770;23.400;2022-12-08T04:52:21;95528.56;;;4.91;74.51
32197;BME280;18697;42.770;23.400;2022-12-08T04:54:46;95529.63;;;4.98;75.05
32197;BME280;18697;42.770;23.400;2022-12-08T04:57:12;95530.47;;;5.11;75.25
32197;BME280;18697;42.770;23.400;2022-12-08T04:59:38;95525.22;;;5.16;74.57
32197;BME280;18697;42.770;23.400;2022-12-08T05:02:03;95524.44;;;5.16;74.75
32197;BME280;18697;42.770;23.400;2022-12-08T05:04:29;95523.28;;;5.29;74.75
32197;BME280;18697;42.770;23.400;2022-12-08T05:06:54;95528.88;;;5.42;74.16
32197;BME280;18697;42.770;23.400;2022-12-08T05:09:20;95538.50;;;5.50;73.82
32197;BME280;18697;42.770;23.400;2022-12-08T05:11:45;95546.44;;;5.48;72.59
32197;BME280;18697;42.770;23.400;2022-12-08T05:14:12;95546.34;;;5.36;71.17
32197;BME280;18697;42.770;23.400;2022-12-08T05:16:37;95546.34;;;5.36;71.20
32197;BME280;18697;42.770;23.400;2022-12-08T05:19:04;95545.06;;;5.24;70.16
32197;BME280;18697;42.770;23.400;2022-12-08T05:21:29;95549.53;;;5.34;69.17
32197;BME280;18697;42.770;23.400;2022-12-08T05:23:55;95561.75;;;5.33;68.70
32197;BME280;18697;42.770;23.400;2022-12-08T05:26:20;95558.94;;;5.20;68.48
32197;BME280;18697;42.770;23.400;2022-12-08T05:28:46;95555.94;;;5.15;69.43
32197;BME280;18697;42.770;23.400;2022-12-08T05:31:12;95554.91;;;5.09;69.98
32197;BME280;18697;42.770;23.400;2022-12-08T05:33:37;95568.56;;;4.80;70.07
32197;BME280;18697;42.770;23.400;2022-12-08T05:36:03;95555.91;;;4.82;69.82
32197;BME280;18697;42.770;23.400;2022-12-08T05:38:28;95553.47;;;4.68;70.63
32197;BME280;18697;42.770;23.400;2022-12-08T05:40:54;95557.41;;;4.51;71.38
32197;BME280;18697;42.770;23.400;2022-12-08T05:43:19;95559.94;;;4.06;72.21
32197;BME280;18697;42.770;23.400;2022-12-08T05:45:45;95557.09;;;3.89;73.87
32197;BME280;18697;42.770;23.400;2022-12-08T05:48:10;95547.59;;;3.94;74.69
32197;BME280;18697;42.770;23.400;2022-12-08T05:50:36;95550.34;;;3.94;74.99
32197;BME280;18697;42.770;23.400;2022-12-08T05:53:01;95551.97;;;4.11;75.95
32197;BME280;18697;42.770;23.400;2022-12-08T05:55:27;95554.00;;;4.27;74.88
32197;BME280;18697;42.770;23.400;2022-12-08T05:57:52;95572.81;;;4.28;73.26
32197;BME280;18697;42.770;23.400;2022-12-08T06:00:19;95570.44;;;4.31;74.42
32197;BME280;18697;42.770;23.400;2022-12-08T06:02:44;95562.81;;;4.38;73.47
32197;BME280;18697;42.770;23.400;2022-12-08T06:05:10;95563.22;;;4.37;73.37
32197;BME280;18697;42.770;23.400;2022-12-08T06:07:35;95585.72;;;4.32;73.77
32197;BME280;18697;42.770;23.400;2022-12-08T06:10:00;95584.03;;;4.18;73.69
32197;BME280;18697;42.770;23.400;2022-12-08T06:12:26;95580.94;;;4.16;73.74
32197;BME280;18697;42.770;23.400;2022-12-08T06:14:51;95579.25;;;4.22;73.69
32197;BME280;18697;42.770;23.400;2022-12-08T06:17:17;95589.09;;;4.00;75.34
32197;BME280;18697;42.770;23.400;2022-12-08T06:19:42;95584.88;;;4.15;75.94
32197;BME280;18697;42.770;23.400;2022-12-08T06:22:08;95586.28;;;4.03;75.67
32197;BME280;18697;42.770;23.400;2022-12-08T06:24:33;95592.84;;;4.09;76.93
32197;BME280;18697;42.770;23.400;2022-12-08T06:26:58;95590.56;;;3.84;77.42
32197;BME280;18697;42.770;23.400;2022-12-08T06:29:24;95596.69;;;3.92;77.91
32197;BME280;18697;42.770;23.400;2022-12-08T06:31:50;95586.63;;;4.05;77.83
32197;BME280;18697;42.770;23.400;2022-12-08T06:34:16;95583.81;;;3.89;77.86
32197;BME280;18697;42.770;23.400;2022-12-08T06:36:42;95592.06;;;4.09;78.78
32197;BME280;18697;42.770;23.400;2022-12-08T06:39:08;95597.63;;;4.25;79.43
32197;BME280;18697;42.770;23.400;2022-12-08T06:41:34;95592.28;;;4.38;78.51
32197;BME280;18697;42.770;23.400;2022-12-08T06:44:19;95589.63;;;4.50;77.97
32197;BME280;18697;42.770;23.400;2022-12-08T06:46:45;95590.25;;;4.58;78.07
32197;BME280;18697;42.770;23.400;2022-12-08T06:49:10;95588.97;;;4.62;77.41
32197;BME280;18697;42.770;23.400;2022-12-08T06:51:35;95580.38;;;4.60;76.79
32197;BME280;18697;42.770;23.400;2022-12-08T06:54:01;95582.81;;;4.75;76.66
32197;BME280;18697;42.770;23.400;2022-12-08T06:56:26;95583.00;;;4.84;76.65
32197;BME280;18697;42.770;23.400;2022-12-08T06:58:52;95588.44;;;4.87;75.85
32197;BME280;18697;42.770;23.400;2022-12-08T07:01:17;95582.41;;;4.92;76.78
32197;BME280;18697;42.770;23.400;2022-12-08T07:03:43;95590.88;;;5.02;76.46
32197;BME280;18697;42.770;23.400;2022-12-08T07:06:14;95595.50;;;5.05;77.07
32197;BME280;18697;42.770;23.400;2022-12-08T07:08:40;95595.19;;;5.19;76.53
32197;BME280;18697;42.770;23.400;2022-12-08T07:11:10;95604.09;;;5.23;75.96
32197;BME280;18697;42.770;23.400;2022-12-08T07:13:36;95597.41;;;5.24;77.05
32197;BME280;18697;42.770;23.400;2022-12-08T07:16:07;95612.19;;;5.30;76.63
32197;BME280;18697;42.770;23.400;2022-12-08T07:18:35;95617.19;;;5.35;76.52
32197;BME280;18697;42.770;23.400;2022-12-08T07:21:09;95618.75;;;5.52;75.18
32197;BME280;18697;42.770;23.400;2022-12-08T07:23:35;95621.16;;;5.67;74.88
32197;BME280;18697;42.770;23.400;2022-12-08T07:26:02;95637.06;;;5.75;75.19
32197;BME280;18697;42.770;23.400;2022-12-08T07:28:32;95629.06;;;5.81;74.84
32197;BME280;18697;42.770;23.400;2022-12-08T07:30:58;95619.44;;;5.89;75.97
32197;BME280;18697;42.770;23.400;2022-12-08T07:33:24;95613.06;;;6.05;74.63
32197;BME280;18697;42.770;23.400;2022-12-08T07:35:54;95610.13;;;6.12;75.74
32197;BME280;18697;42.770;23.400;2022-12-08T07:38:20;95603.47;;;6.25;74.76
32197;BME280;18697;42.770;23.400;2022-12-08T07:40:45;95610.25;;;6.50;73.47
32197;BME280;18697;42.770;23.400;2022-12-08T07:43:10;95623.75;;;6.61;73.27
32197;BME280;18697;42.770;23.400;2022-12-08T07:45:36;95606.88;;;6.71;73.18
32197;BME280;18697;42.770;23.400;2022-12-08T07:48:02;95598.91;;;6.73;72.60
32197;BME280;18697;42.770;23.400;2022-12-08T07:50:27;95606.78;;;6.87;74.56
32197;BME280;18697;42.770;23.400;2022-12-08T07:52:53;95610.09;;;7.08;72.89
32197;BME280;18697;42.770;23.400;2022-12-08T07:55:18;95611.00;;;7.17;73.40
32197;BME280;18697;42.770;23.400;2022-12-08T07:57:44;95612.00;;;7.36;71.40
32197;BME280;18697;42.770;23.400;2022-12-08T08:00:10;95618.63;;;7.26;71.41
32197;BME280;18697;42.770;23.400;2022-12-08T08:02:36;95613.66;;;7.21;71.98
32197;BME280;18697;42.770;23.400;2022-12-08T08:05:01;95613.97;;;7.10;72.62
32197;BME280;18697;42.770;23.400;2022-12-08T08:07:29;95611.44;;;7.16;72.98
32197;BME280;18697;42.770;23.400;2022-12-08T08:09:55;95608.22;;;7.30;71.81
32197;BME280;18697;42.770;23.400;2022-12-08T08:12:20;95614.09;;;7.32;72.05
32197;BME280;18697;42.770;23.400;2022-12-08T08:14:46;95609.06;;;7.52;73.03
32197;BME280;18697;42.770;23.400;2022-12-08T08:17:11;95608.38;;;7.74;72.89
32197;BME280;18697;42.770;23.400;2022-12-08T08:19:36;95622.28;;;7.83;71.95
32197;BME280;18697;42.770;23.400;2022-12-08T08:22:02;95616.03;;;8.04;71.71
32197;BME280;18697;42.770;23.400;2022-12-08T08:24:27;95616.28;;;8.19;71.55
32197;BME280;18697;42.770;23.400;2022-12-08T08:26:53;95615.28;;;8.25;71.72
32197;BME280;18697;42.770;23.400;2022-12-08T08:29:19;95621.00;;;8.31;72.27
32197;BME280;18697;42.770;23.400;2022-12-08T08:31:45;95617.81;;;8.33;72.38
32197;BME280;18697;42.770;23.400;2022-12-08T08:34:10;95618.22;;;8.44;72.67
32197;BME280;18697;42.770;23.400;2022-12-08T08:36:36;95611.19;;;8.52;71.92
32197;BME280;18697;42.770;23.400;2022-12-08T08:39:01;95614.81;;;8.27;72.21
32197;BME280;18697;42.770;23.400;2022-12-08T08:41:27;95613.97;;;8.17;73.06
32197;BME280;18697;42.770;23.400;2022-12-08T08:43:53;95619.06;;;8.19;73.57
32197;BME280;18697;42.770;23.400;2022-12-08T08:46:18;95617.34;;;8.12;73.53
32197;BME280;18697;42.770;23.400;2022-12-08T08:48:43;95624.00;;;8.02;74.90
32197;BME280;18697;42.770;23.400;2022-12-08T08:51:10;95616.50;;;8.24;74.96
32197;BME280;18697;42.770;23.400;2022-12-08T08:53:36;95606.63;;;8.58;73.64
32197;BME280;18697;42.770;23.400;2022-12-08T08:56:02;95611.50;;;9.07;71.89
32197;BME280;18697;42.770;23.400;2022-12-08T08:58:29;95604.09;;;9.35;70.36
32197;BME280;18697;42.770;23.400;2022-12-08T09:00:55;95600.78;;;9.58;69.61
32197;BME280;18697;42.770;23.400;2022-12-08T09:03:21;95604.06;;;10.02;68.28
32197;BME280;18697;42.770;23.400;2022-12-08T09:05:47;95600.44;;;10.33;66.91
32197;BME280;18697;42.770;23.400;2022-12-08T09:08:12;95607.81;;;10.27;67.61
32197;BME280;18697;42.770;23.400;2022-12-08T09:10:37;95600.41;;;10.42;66.55
32197;BME280;18697;42.770;23.400;2022-12-08T09:13:03;95593.13;;;10.72;66.95
32197;BME280;18697;42.770;23.400;2022-12-08T09:15:28;95590.66;;;10.56;66.77
32197;BME280;18697;42.770;23.400;2022-12-08T09:17:53;95580.63;;;10.58;66.97
32197;BME280;18697;42.770;23.400;2022-12-08T09:20:19;95577.47;;;10.93;66.88
32197;BME280;18697;42.770;23.400;2022-12-08T09:22:44;95575.34;;;11.20;65.56
32197;BME280;18697;42.770;23.400;2022-12-08T09:25:10;95570.00;;;11.74;64.29
32197;BME280;18697;42.770;23.400;2022-12-08T09:27:35;95573.41;;;11.78;62.36
32197;BME280;18697;42.770;23.400;2022-12-08T09:30:01;95564.09;;;12.05;61.87
32197;BME280;18697;42.770;23.400;2022-12-08T09:32:26;95572.88;;;12.27;61.21
32197;BME280;18697;42.770;23.400;2022-12-08T09:34:51;95557.03;;;12.18;60.45
32197;BME280;18697;42.770;23.400;2022-12-08T09:37:18;95558.91;;;12.12;60.37
32197;BME280;18697;42.770;23.400;2022-12-08T09:39:43;95543.91;;;11.95;61.77
32197;BME280;18697;42.770;23.400;2022-12-08T09:42:09;95557.28;;;12.06;61.78
32197;BME280;18697;42.770;23.400;2022-12-08T09:44:56;95549.44;;;12.19;61.98
32197;BME280;18697;42.770;23.400;2022-12-08T09:47:31;95551.78;;;11.73;61.98
32197;BME280;18697;42.770;23.400;2022-12-08T09:53:05;95547.59;;;10.69;66.50
32197;BME280;18697;42.770;23.400;2022-12-08T09:55:43;95544.44;;;10.95;65.61
32197;BME280;18697;42.770;23.400;2022-12-08T09:58:20;95541.81;;;11.24;65.32
32197;BME280;18697;42.770;23.400;2022-12-08T10:00:46;95527.34;;;10.87;65.84
32197;BME280;18697;42.770;23.400;2022-12-08T10:03:12;95527.66;;;10.80;66.25
32197;BME280;18697;42.770;23.400;2022-12-08T10:05:42;95524.38;;;10.91;66.71
32197;BME280;18697;42.770;23.400;2022-12-08T10:08:30;95521.16;;;11.16;65.02
32197;BME280;18697;42.770;23.400;2022-12-08T10:11:10;95515.06;;;11.03;65.81
32197;BME280;18697;42.770;23.400;2022-12-08T10:13:46;95514.66;;;10.95;66.59
32197;BME280;18697;42.770;23.400;2022-12-08T10:16:32;95511.88;;;11.19;65.34
32197;BME280;18697;42.770;23.400;2022-12-08T10:19:10;95507.50;;;11.84;63.74
32197;BME280;18697;42.770;23.400;2022-12-08T10:21:38;95503.25;;;12.12;62.35
32197;BME280;18697;42.770;23.400;2022-12-08T10:24:10;95497.34;;;12.49;63.06
32197;BME280;18697;42.770;23.400;2022-12-08T10:26:38;95503.13;;;13.10;61.17
32197;BME280;18697;42.770;23.400;2022-12-08T10:29:03;95503.22;;;13.30;58.41
32197;BME280;18697;42.770;23.400;2022-12-08T10:31:31;95502.25;;;13.54;57.82
32197;BME280;18697;42.770;23.400;2022-12-08T10:34:09;95495.34;;;13.49;57.19
32197;BME280;18697;42.770;23.400;2022-12-08T10:36:46;95484.53;;;13.57;57.38
32197;BME280;18697;42.770;23.400;2022-12-08T10:39:35;95483.72;;;13.51;57.79
32197;BME280;18697;42.770;23.400;2022-12-08T10:42:17;95483.13;;;13.46;57.68
32197;BME280;18697;42.770;23.400;2022-12-08T10:47:35;95477.19;;;13.39;59.01
32197;BME280;18697;42.770;23.400;2022-12-08T10:50:29;95473.09;;;13.95;58.43
32197;BME280;18697;42.770;23.400;2022-12-08T10:53:25;95473.19;;;14.01;57.40
32197;BME280;18697;42.770;23.400;2022-12-08T10:58:35;95462.84;;;13.87;58.38
32197;BME280;18697;42.770;23.400;2022-12-08T11:01:07;95452.47;;;14.39;57.46
32197;BME280;18697;42.770;23.400;2022-12-08T11:06:12;95458.53;;;13.86;58.36
32197;BME280;18697;42.770;23.400;2022-12-08T11:12:13;95450.00;;;13.54;60.75
32197;BME280;18697;42.770;23.400;2022-12-08T11:17:08;95457.91;;;13.56;60.48
32197;BME280;18697;42.770;23.400;2022-12-08T11:19:42;95449.47;;;13.50;60.58
32197;BME280;18697;42.770;23.400;2022-12-08T11:22:31;95438.78;;;13.48;61.01
32197;BME280;18697;42.770;23.400;2022-12-08T11:27:34;95421.66;;;12.86;62.99
32197;BME280;18697;42.770;23.400;2022-12-08T11:30:02;95420.94;;;13.20;62.35
32197;BME280;18697;42.770;23.400;2022-12-08T11:35:06;95415.34;;;13.61;61.35
32197;BME280;18697;42.770;23.400;2022-12-08T11:37:39;95414.25;;;13.99;60.06
32197;BME280;18697;42.770;23.400;2022-12-08T11:40:07;95414.28;;;13.78;59.86
32197;BME280;18697;42.770;23.400;2022-12-08T11:42:55;95412.50;;;13.35;60.22
32197;BME280;18697;42.770;23.400;2022-12-08T11:45:27;95400.88;;;13.36;60.72
32197;BME280;18697;42.770;23.400;2022-12-08T11:50:52;95408.66;;;12.97;62.25
32197;BME280;18697;42.770;23.400;2022-12-08T11:53:29;95396.47;;;12.95;62.74
32197;BME280;18697;42.770;23.400;2022-12-08T11:55:59;95394.69;;;13.12;62.28
32197;BME280;18697;42.770;23.400;2022-12-08T11:58:40;95394.78;;;13.38;61.64
32197;BME280;18697;42.770;23.400;2022-12-08T12:01:17;95393.16;;;13.72;61.03
32197;BME280;18697;42.770;23.400;2022-12-08T12:03:49;95394.50;;;14.02;59.83
32197;BME280;18697;42.770;23.400;2022-12-08T12:22:44;95386.03;;;14.49;58.20
32197;BME280;18697;42.770;23.400;2022-12-08T12:25:20;95383.75;;;14.47;57.93
32197;BME280;18697;42.770;23.400;2022-12-08T12:27:48;95377.94;;;14.51;57.80
32197;BME280;18697;42.770;23.400;2022-12-08T12:30:24;95374.41;;;14.56;59.05
32197;BME280;18697;42.770;23.400;2022-12-08T12:32:59;95376.44;;;14.55;59.56
32197;BME280;18697;42.770;23.400;2022-12-08T12:35:35;95377.22;;;14.56;59.38
32197;BME280;18697;42.770;23.400;2022-12-08T12:38:04;95361.47;;;14.58;58.47
32197;BME280;18697;42.770;23.400;2022-12-08T12:40:58;95365.00;;;14.53;58.46
32197;BME280;18697;42.770;23.400;2022-12-08T12:43:29;95354.53;;;14.48;59.19
32197;BME280;18697;42.770;23.400;2022-12-08T12:48:50;95355.84;;;14.27;60.78
32197;BME280;18697;42.770;23.400;2022-12-08T13:02:37;95361.88;;;14.45;60.85
32197;BME280;18697;42.770;23.400;2022-12-08T13:05:30;95353.50;;;14.45;60.58
32197;BME280;18697;42.770;23.400;2022-12-08T13:08:19;95350.44;;;14.43;60.11
32197;BME280;18697;42.770;23.400;2022-12-08T13:11:06;95356.53;;;14.42;60.19
32197;BME280;18697;42.770;23.400;2022-12-08T13:13:31;95347.81;;;14.34;60.39
32197;BME280;18697;42.770;23.400;2022-12-08T13:18:40;95348.03;;;14.31;59.87
32197;BME280;18697;42.770;23.400;2022-12-08T13:23:45;95339.47;;;14.40;60.07
32197;BME280;18697;42.770;23.400;2022-12-08T13:26:25;95335.03;;;14.54;59.18
32197;BME280;18697;42.770;23.400;2022-12-08T13:34:05;95334.66;;;14.72;58.40
32197;BME280;18697;42.770;23.400;2022-12-08T13:36:40;95331.28;;;14.62;58.85
32197;BME280;18697;42.770;23.400;2022-12-08T13:39:19;95326.09;;;14.50;60.03
32197;BME280;18697;42.770;23.400;2022-12-08T13:41:53;95338.44;;;14.37;60.38
32197;BME280;18697;42.770;23.400;2022-12-08T13:44:23;95338.81;;;14.25;61.23
32197;BME280;18697;42.770;23.400;2022-12-08T13:46:54;95330.91;;;14.18;60.76
32197;BME280;18697;42.770;23.400;2022-12-08T13:49:25;95336.78;;;13.94;61.88
32197;BME280;18697;42.770;23.400;2022-12-08T13:51:53;95345.94;;;13.68;62.96
32197;BME280;18697;42.770;23.400;2022-12-08T13:54:34;95344.88;;;13.66;63.72
32197;BME280;18697;42.770;23.400;2022-12-08T13:57:01;95341.91;;;13.49;64.32
32197;BME280;18697;42.770;23.400;2022-12-08T13:59:31;95347.31;;;13.32;65.11
32197;BME280;18697;42.770;23.400;2022-12-08T14:02:04;95343.81;;;13.17;66.19
32197;BME280;18697;42.770;23.400;2022-12-08T14:04:36;95347.41;;;13.03;66.63
32197;BME280;18697;42.770;23.400;2022-12-08T14:07:02;95341.34;;;13.04;66.58
32197;BME280;18697;42.770;23.400;2022-12-08T14:09:32;95350.75;;;13.07;66.73
32197;BME280;18697;42.770;23.400;2022-12-08T14:14:45;95365.75;;;12.74;68.27
32197;BME280;18697;42.770;23.400;2022-12-08T14:17:13;95366.13;;;12.82;67.91
32197;BME280;18697;42.770;23.400;2022-12-08T14:19:42;95366.06;;;12.76;68.13
32197;BME280;18697;42.770;23.400;2022-12-08T14:22:16;95366.72;;;12.71;68.42
32197;BME280;18697;42.770;23.400;2022-12-08T14:24:46;95359.53;;;12.65;68.58
32197;BME280;18697;42.770;23.400;2022-12-08T14:27:18;95363.53;;;12.58;69.03
32197;BME280;18697;42.770;23.400;2022-12-08T14:32:38;95368.47;;;12.04;69.08
32197;BME280;18697;42.770;23.400;2022-12-08T14:37:35;95354.78;;;11.62;69.93
32197;BME280;18697;42.770;23.400;2022-12-08T14:40:15;95363.81;;;11.57;69.92
32197;BME280;18697;42.770;23.400;2022-12-08T14:42:50;95371.16;;;11.45;70.04
32197;BME280;18697;42.770;23.400;2022-12-08T14:45:17;95363.00;;;11.42;70.44
32197;BME280;18697;42.770;23.400;2022-12-08T14:47:43;95367.63;;;11.45;70.49
32197;BME280;18697;42.770;23.400;2022-12-08T14:50:34;95367.91;;;11.47;70.81
32197;BME280;18697;42.770;23.400;2022-12-08T14:53:01;95360.13;;;11.36;70.99